This is the latest recevied weather packets stored in our database for station/object TG5ALY-16. If no packets are shown the sender has not sent any weather packets the latest 10 day(s).
| Time | Temp. | Humidity | Pressure | Rain* | Wind** | Luminosity | Snow |
|---|---|---|---|---|---|---|---|
| 1778198111 | 18.33° C | 78% | 1014 hPa | 0 mm | - | - | - |
| 1778197510 | 18.89° C | 81% | 1014 hPa | 0 mm | - | - | - |
| 1778196909 | 18.89° C | 81% | 1014 hPa | 0 mm | - | - | - |
| 1778196309 | 18.89° C | 80% | 1012 hPa | 0 mm | - | - | - |
| 1778195708 | 19.44° C | 78% | 1012 hPa | 0 mm | - | - | - |
| 1778195107 | 19.44° C | 76% | 1012 hPa | 0 mm | - | - | - |
| 1778194507 | 20° C | 73% | 1012 hPa | 0 mm | - | - | - |
| 1778193906 | 20° C | 73% | 1012 hPa | 0 mm | - | - | - |
| 1778193306 | 21.11° C | 71% | 1012 hPa | 0 mm | - | - | - |
| 1778192705 | 21.11° C | 71% | 1012 hPa | 0 mm | - | - | - |
| 1778192104 | 20° C | 73% | 1012 hPa | 0 mm | - | - | - |
| 1778191503 | 20° C | 73% | 1012 hPa | 0 mm | - | - | - |
| 1778190903 | 20.56° C | 71% | 1012 hPa | 0 mm | - | - | - |
| 1778190302 | 20.56° C | 71% | 1012 hPa | 0 mm | - | - | - |
| 1778189701 | 21.67° C | 67% | 1012 hPa | 0 mm | - | - | - |
| 1778189101 | 21.67° C | 67% | 1013 hPa | 0 mm | - | - | - |
| 1778188500 | 23.33° C | 62% | 1013 hPa | 0 mm | - | - | - |
| 1778187899 | 23.33° C | 62% | 1013 hPa | 0 mm | - | - | - |
| 1778187298 | 23.89° C | 58% | 1013 hPa | 0 mm | - | - | - |
| 1778186698 | 23.89° C | 58% | 1013 hPa | 0 mm | - | - | - |
| 1778186097 | 23.89° C | 60% | 1013 hPa | 0 mm | - | - | - |
| 1778185496 | 23.89° C | 60% | 1014 hPa | 0 mm | - | - | - |
| 1778184896 | 25° C | 52% | 1014 hPa | 0 mm | - | - | - |
| 1778184295 | 25° C | 52% | 1014 hPa | 0 mm | - | - | - |
| 1778183695 | 25° C | 51% | 1013 hPa | 0 mm | - | - | - |
* Rain latest hour (hover to see other rain measurements)
** Current wind speed in m/s (hover to see current wind gust speed)